Time;durP1;ratioP1;P1;durP2;ratioP2;P2;SDS_P1;SDS_P2;PMS_P1;PMS_P2;Temp;Humidity;BMP_temperature;BMP_pressure;BME280_temperature;BME280_humidity;BME280_pressure;Samples;Min_cycle;Max_cycle;Signal;HPM_P1;HPM_P2
2022/11/27 00:01:37;;;;;;;12.35;4.85;;;7.00;99.90;;;;;;4164853;28;20026;-64
2022/11/27 00:03:38;;;;;;;12.45;4.93;;;6.90;99.90;;;;;;4174875;28;20035;-64
2022/11/27 00:05:39;;;;;;;8.70;3.97;;;7.00;99.90;;;;;;4175918;28;20422;-64
2022/11/27 00:07:39;;;;;;;9.18;4.15;;;7.00;99.90;;;;;;4179117;28;20037;-64
2022/11/27 00:09:40;;;;;;;16.02;4.25;;;7.00;99.90;;;;;;4176496;28;20101;-64
2022/11/27 00:11:42;;;;;;;12.05;4.20;;;6.90;99.90;;;;;;4173881;28;20364;-64
2022/11/27 00:13:43;;;;;;;11.43;4.10;;;7.00;99.90;;;;;;4179196;28;20102;-64
2022/11/27 00:15:44;;;;;;;13.60;4.22;;;7.00;99.90;;;;;;4177846;28;20043;-65
2022/11/27 00:17:44;;;;;;;12.50;4.60;;;7.00;99.90;;;;;;4179239;28;20116;-64
2022/11/27 00:19:45;;;;;;;16.35;4.75;;;7.00;99.90;;;;;;4175044;28;20521;-64
2022/11/27 00:21:46;;;;;;;11.45;4.72;;;7.00;99.90;;;;;;4177133;28;20074;-64
2022/11/27 00:23:46;;;;;;;8.90;4.55;;;7.00;99.90;;;;;;4179115;28;20037;-64
2022/11/27 00:25:51;;;;;;;12.88;4.05;;;7.00;99.90;;;;;;4176323;28;20505;-64
2022/11/27 00:27:52;;;;;;;11.38;3.92;;;7.00;99.90;;;;;;4178448;28;20376;-64
2022/11/27 00:29:53;;;;;;;13.13;4.25;;;7.00;99.90;;;;;;4174676;28;20770;-64
2022/11/27 00:31:55;;;;;;;14.98;3.97;;;6.90;99.90;;;;;;4177228;28;20037;-64
2022/11/27 00:33:58;;;;;;;12.68;4.10;;;6.90;99.90;;;;;;4179121;28;20042;-64
2022/11/27 00:36:06;;;;;;;15.25;4.60;;;6.90;99.90;;;;;;4175481;28;20369;-64
2022/11/27 00:38:07;;;;;;;10.90;3.80;;;6.80;99.90;;;;;;4178784;28;20033;-64
2022/11/27 00:40:08;;;;;;;9.88;3.72;;;6.90;99.90;;;;;;4175803;28;20041;-67
2022/11/27 00:42:08;;;;;;;14.38;4.50;;;6.90;99.90;;;;;;4176808;28;20444;-64
2022/11/27 00:44:11;;;;;;;7.63;3.50;;;6.80;99.90;;;;;;4178648;28;20116;-64
2022/11/27 00:46:16;;;;;;;14.98;4.18;;;6.80;99.90;;;;;;4177372;28;20113;-63
2022/11/27 00:48:17;;;;;;;12.82;3.70;;;6.90;99.90;;;;;;4176068;28;20029;-64
2022/11/27 00:50:17;;;;;;;12.73;3.55;;;6.80;99.90;;;;;;4175480;28;20033;-64
2022/11/27 00:52:18;;;;;;;8.27;3.33;;;6.90;99.90;;;;;;4175763;28;20040;-64
2022/11/27 00:54:19;;;;;;;11.65;4.07;;;6.80;99.90;;;;;;4178844;28;20116;-65
2022/11/27 00:56:26;;;;;;;17.08;4.13;;;6.80;99.90;;;;;;4158641;28;20034;-64
2022/11/27 00:58:29;;;;;;;9.88;3.90;;;6.80;99.90;;;;;;4179541;28;20395;-64
2022/11/27 01:00:29;;;;;;;14.52;3.88;;;6.80;99.90;;;;;;4157532;28;20549;-64
2022/11/27 01:02:30;;;;;;;15.77;3.97;;;6.80;99.90;;;;;;4179281;28;20029;-64
2022/11/27 01:04:30;;;;;;;14.77;4.00;;;6.80;99.90;;;;;;4178190;28;20040;-64
2022/11/27 01:06:31;;;;;;;14.88;3.60;;;6.80;99.90;;;;;;4175068;28;20053;-65
2022/11/27 01:08:33;;;;;;;15.90;3.92;;;6.80;99.90;;;;;;4178314;28;20121;-64
2022/11/27 01:10:33;;;;;;;12.53;3.43;;;6.80;99.90;;;;;;4175130;28;20033;-64
2022/11/27 01:12:34;;;;;;;7.93;3.10;;;6.80;99.90;;;;;;4176865;28;20319;-64
2022/11/27 01:14:35;;;;;;;16.55;3.72;;;6.80;99.90;;;;;;4178452;28;20029;-64
2022/11/27 01:16:36;;;;;;;16.00;3.83;;;6.80;99.90;;;;;;4175296;28;20071;-64
2022/11/27 01:18:39;;;;;;;9.93;3.75;;;6.80;99.90;;;;;;4158471;28;20492;-64
2022/11/27 01:20:39;;;;;;;11.55;3.25;;;6.80;99.90;;;;;;4175448;28;20102;-64
2022/11/27 01:22:40;;;;;;;12.32;3.83;;;6.80;99.90;;;;;;4178006;28;20139;-64
2022/11/27 01:24:42;;;;;;;9.30;3.08;;;6.80;99.90;;;;;;4178280;28;20091;-64
2022/11/27 01:26:43;;;;;;;11.93;3.57;;;6.80;99.90;;;;;;4177342;28;20040;-64
2022/11/27 01:28:44;;;;;;;9.15;3.53;;;6.80;99.90;;;;;;4177096;28;20342;-64
2022/11/27 01:30:45;;;;;;;13.15;3.58;;;6.80;99.90;;;;;;4165633;28;20034;-64
2022/11/27 01:32:46;;;;;;;10.13;3.25;;;6.80;99.90;;;;;;4169296;28;20071;-66
2022/11/27 01:34:46;;;;;;;9.32;3.13;;;6.80;99.90;;;;;;4182868;28;20116;-64
2022/11/27 01:36:47;;;;;;;13.27;3.67;;;6.90;99.90;;;;;;4194156;28;20033;-65
2022/11/27 01:38:48;;;;;;;10.80;3.28;;;6.80;99.90;;;;;;4166558;28;20033;-64
2022/11/27 01:40:55;;;;;;;11.00;3.47;;;6.80;99.90;;;;;;4164860;28;20033;-64
2022/11/27 01:42:56;;;;;;;8.50;3.20;;;6.90;99.90;;;;;;4168873;28;20112;-64
2022/11/27 01:44:57;;;;;;;15.20;3.50;;;6.80;99.90;;;;;;4183509;28;20466;-64
2022/11/27 01:47:04;;;;;;;10.27;3.35;;;6.80;99.90;;;;;;4193710;28;20032;-64
2022/11/27 01:49:22;;;;;;;9.15;2.97;;;6.80;99.90;;;;;;4163740;28;20519;-64
2022/11/27 01:51:23;;;;;;;14.23;3.20;;;6.80;99.90;;;;;;4177016;28;20173;-65
2022/11/27 01:53:24;;;;;;;10.75;3.28;;;6.80;99.90;;;;;;4175947;28;20033;-64
2022/11/27 01:55:33;;;;;;;11.63;3.30;;;6.80;99.90;;;;;;4194058;28;21114;-64
2022/11/27 01:57:40;;;;;;;11.77;3.20;;;6.80;99.90;;;;;;4177851;28;20063;-64
2022/11/27 01:59:41;;;;;;;7.80;2.80;;;6.80;99.90;;;;;;4176268;28;20510;-64
2022/11/27 02:01:41;;;;;;;9.45;3.35;;;6.80;99.90;;;;;;4177542;28;20495;-64
2022/11/27 02:03:42;;;;;;;10.63;3.25;;;6.80;99.90;;;;;;4168467;28;20053;-64
2022/11/27 02:05:43;;;;;;;7.93;2.95;;;6.80;99.90;;;;;;4189046;28;20033;-64
2022/11/27 02:07:45;;;;;;;7.82;3.05;;;6.80;99.90;;;;;;4193769;28;20040;-64
2022/11/27 02:09:46;;;;;;;8.85;2.42;;;6.80;99.90;;;;;;4164688;28;20040;-64
2022/11/27 02:12:08;;;;;;;10.25;2.90;;;6.70;99.90;;;;;;4160728;28;20026;-66
2022/11/27 02:14:23;;;;;;;9.77;3.00;;;6.70;99.90;;;;;;4177713;28;20025;-64
2022/11/27 02:17:15;;;;;;;10.98;2.53;;;6.70;99.90;;;;;;4176275;28;20499;-64
2022/11/27 02:19:49;;;;;;;9.18;2.83;;;6.70;99.90;;;;;;4136801;28;20563;-64
2022/11/27 02:22:01;;;;;;;6.68;2.40;;;6.70;99.90;;;;;;4161239;28;20026;-64
2022/11/27 02:24:23;;;;;;;8.77;2.92;;;6.60;99.90;;;;;;4188187;28;20027;-65
2022/11/27 02:27:01;;;;;;;5.45;2.15;;;6.60;99.90;;;;;;4193621;28;20031;-64
2022/11/27 02:29:09;;;;;;;7.80;3.00;;;6.60;99.90;;;;;;4157733;28;20488;-66
2022/11/27 02:31:24;;;;;;;10.07;3.20;;;6.60;99.90;;;;;;4174836;28;20055;-64
2022/11/27 02:33:27;;;;;;;9.38;3.25;;;6.60;99.90;;;;;;4181635;28;20487;-64
2022/11/27 02:35:34;;;;;;;9.73;3.08;;;6.60;99.90;;;;;;4160842;28;20036;-64
2022/11/27 02:37:49;;;;;;;9.50;3.10;;;6.50;99.90;;;;;;4161515;28;20033;-64
2022/11/27 02:40:03;;;;;;;11.55;3.60;;;6.50;99.90;;;;;;4166794;28;20051;-64
2022/11/27 02:42:10;;;;;;;11.52;3.22;;;6.40;99.90;;;;;;4177091;28;20040;-64
2022/11/27 02:44:12;;;;;;;10.20;2.65;;;6.40;99.90;;;;;;4177795;28;20108;-64
2022/11/27 02:46:15;;;;;;;18.25;3.30;;;6.50;99.90;;;;;;4180427;28;20029;-64
2022/11/27 02:48:19;;;;;;;11.05;3.05;;;6.40;99.90;;;;;;4180410;28;20040;-64
2022/11/27 02:50:23;;;;;;;10.10;3.47;;;6.40;99.90;;;;;;4173328;28;20108;-64
2022/11/27 02:52:26;;;;;;;12.50;3.35;;;6.40;99.90;;;;;;4182206;28;20047;-64
2022/11/27 02:54:29;;;;;;;11.40;3.58;;;6.40;99.90;;;;;;4191405;28;20467;-64
2022/11/27 02:56:31;;;;;;;9.50;3.00;;;6.40;99.90;;;;;;4176987;28;20082;-64
2022/11/27 02:58:35;;;;;;;7.47;2.72;;;6.40;99.90;;;;;;4177741;28;20037;-64
2022/11/27 03:00:38;;;;;;;10.85;2.85;;;6.40;99.90;;;;;;4165682;28;20037;-64
2022/11/27 03:02:44;;;;;;;12.13;3.40;;;6.40;99.90;;;;;;4161173;28;20033;-64
2022/11/27 03:04:52;;;;;;;9.00;2.97;;;6.40;99.90;;;;;;4167679;28;20120;-64
2022/11/27 03:06:57;;;;;;;9.00;2.95;;;6.40;99.90;;;;;;4169565;28;20049;-64
2022/11/27 03:09:05;;;;;;;9.15;3.40;;;6.40;99.90;;;;;;4178667;28;20037;-64
2022/11/27 03:11:09;;;;;;;8.68;3.10;;;6.40;99.90;;;;;;4178128;28;20059;-64
2022/11/27 03:13:10;;;;;;;11.23;3.38;;;6.40;99.90;;;;;;4191903;28;20033;-64
2022/11/27 03:15:11;;;;;;;8.00;2.83;;;6.30;99.90;;;;;;4191609;28;20033;-64
2022/11/27 03:17:37;;;;;;;10.15;3.42;;;6.40;99.90;;;;;;4180352;28;20036;-64
2022/11/27 03:19:57;;;;;;;10.30;3.55;;;6.40;99.90;;;;;;4160537;28;21000;-64
2022/11/27 03:22:00;;;;;;;11.63;3.33;;;6.40;99.90;;;;;;4174039;28;20044;-64
2022/11/27 03:24:01;;;;;;;13.07;3.50;;;6.40;99.90;;;;;;4180649;28;20029;-64
2022/11/27 03:26:02;;;;;;;12.70;3.78;;;6.40;99.90;;;;;;4170054;28;20484;-64
2022/11/27 03:28:07;;;;;;;9.77;3.50;;;6.40;99.90;;;;;;4163966;28;20036;-67
2022/11/27 03:30:09;;;;;;;7.65;3.72;;;6.40;99.90;;;;;;4170039;28;20086;-65
2022/11/27 03:32:10;;;;;;;10.23;3.72;;;6.40;99.90;;;;;;4163691;28;20032;-64
2022/11/27 03:34:11;;;;;;;11.30;3.63;;;6.40;99.90;;;;;;4196491;28;20438;-64
2022/11/27 03:36:17;;;;;;;9.25;3.80;;;6.40;99.90;;;;;;4186807;28;20025;-64
2022/11/27 03:38:17;;;;;;;12.25;3.72;;;6.50;99.90;;;;;;4179994;28;20041;-64
2022/11/27 03:40:19;;;;;;;12.00;4.00;;;6.50;99.90;;;;;;4170514;28;20033;-66
2022/11/27 03:42:26;;;;;;;8.18;3.88;;;6.50;99.90;;;;;;4184936;28;20020;-64
2022/11/27 03:44:29;;;;;;;13.45;4.13;;;6.40;99.90;;;;;;4196835;28;20414;-64
2022/11/27 03:47:05;;;;;;;12.82;4.15;;;6.40;99.90;;;;;;4185601;28;20033;-64
2022/11/27 03:49:53;;;;;;;10.32;4.28;;;6.40;99.90;;;;;;4162597;28;20460;-64
2022/11/27 03:52:14;;;;;;;8.98;4.22;;;6.50;99.90;;;;;;4176132;28;20029;-64
2022/11/27 03:54:45;;;;;;;7.70;4.00;;;6.40;99.90;;;;;;4178838;28;20487;-64
2022/11/27 03:57:08;;;;;;;12.15;4.72;;;6.50;99.90;;;;;;4175598;28;20120;-64
2022/11/27 03:59:31;;;;;;;10.60;4.57;;;6.40;99.90;;;;;;4178863;28;20106;-64
2022/11/27 04:01:32;;;;;;;18.27;5.95;;;6.50;99.90;;;;;;4173774;28;20070;-64
2022/11/27 04:03:32;;;;;;;12.55;5.28;;;6.40;99.90;;;;;;4179796;28;20064;-64
2022/11/27 04:05:33;;;;;;;15.27;5.55;;;6.40;99.90;;;;;;4179192;28;20075;-64
2022/11/27 04:07:34;;;;;;;12.43;5.50;;;6.50;99.90;;;;;;4179153;28;20083;-64
2022/11/27 04:09:34;;;;;;;14.38;5.72;;;6.40;99.90;;;;;;4177329;28;20048;-64
2022/11/27 04:11:35;;;;;;;15.73;6.28;;;6.40;99.90;;;;;;4168066;28;20033;-64
2022/11/27 04:13:36;;;;;;;14.68;6.20;;;6.40;99.90;;;;;;4179602;28;20043;-64
2022/11/27 04:15:36;;;;;;;14.23;6.38;;;6.40;99.90;;;;;;4178980;28;20487;-64
2022/11/27 04:17:37;;;;;;;15.38;7.05;;;6.40;99.90;;;;;;4166906;28;20452;-64
2022/11/27 04:19:37;;;;;;;16.15;7.57;;;6.40;99.90;;;;;;4173159;28;20033;-64
2022/11/27 04:21:38;;;;;;;14.20;6.88;;;6.50;99.90;;;;;;4174687;28;20133;-65
2022/11/27 04:23:39;;;;;;;14.30;6.88;;;6.40;99.90;;;;;;4145685;28;20025;-64
2022/11/27 04:25:40;;;;;;;16.65;7.28;;;6.40;99.90;;;;;;4172026;28;20036;-64
2022/11/27 04:27:40;;;;;;;15.65;8.07;;;6.40;99.90;;;;;;4167807;28;20030;-64
2022/11/27 04:29:41;;;;;;;17.95;7.13;;;6.40;99.90;;;;;;4168482;28;20041;-64
2022/11/27 04:31:42;;;;;;;14.20;6.78;;;6.50;99.90;;;;;;4164668;28;20026;-64
2022/11/27 04:33:42;;;;;;;22.02;7.63;;;6.40;99.90;;;;;;4196182;28;20025;-64
2022/11/27 04:35:43;;;;;;;18.20;7.82;;;6.50;99.90;;;;;;4195354;28;20036;-64
2022/11/27 04:37:43;;;;;;;17.33;7.30;;;6.50;99.90;;;;;;4175913;28;20030;-64
2022/11/27 04:39:44;;;;;;;18.83;8.57;;;6.40;99.90;;;;;;4167756;28;20030;-64
2022/11/27 04:41:44;;;;;;;17.30;8.32;;;6.50;99.90;;;;;;4183725;28;20025;-64
2022/11/27 04:43:45;;;;;;;18.95;8.05;;;6.40;99.90;;;;;;4169469;28;20017;-64
2022/11/27 04:45:46;;;;;;;16.55;7.43;;;6.50;99.90;;;;;;4178532;28;20466;-64
2022/11/27 04:47:46;;;;;;;19.70;8.20;;;6.50;99.90;;;;;;4179134;28;20021;-63
2022/11/27 04:49:47;;;;;;;14.50;7.25;;;6.50;99.90;;;;;;4177214;28;20025;-64
2022/11/27 04:51:48;;;;;;;21.40;8.48;;;6.50;99.90;;;;;;4181181;28;20111;-64
2022/11/27 04:53:48;;;;;;;18.38;7.93;;;6.60;99.90;;;;;;4163951;28;20035;-64
2022/11/27 04:55:51;;;;;;;22.52;8.73;;;6.50;99.90;;;;;;4162215;28;20420;-64
2022/11/27 04:57:51;;;;;;;17.35;7.88;;;6.60;99.90;;;;;;4169654;28;20025;-64
2022/11/27 04:59:52;;;;;;;16.52;7.60;;;6.50;99.90;;;;;;4173961;28;20052;-64
2022/11/27 05:01:53;;;;;;;16.48;8.40;;;6.60;99.90;;;;;;4160960;28;20030;-64
2022/11/27 05:03:53;;;;;;;17.90;8.60;;;6.60;99.90;;;;;;4177146;28;20036;-64
2022/11/27 05:05:56;;;;;;;18.13;8.50;;;6.60;99.90;;;;;;4177594;28;20033;-64
2022/11/27 05:07:56;;;;;;;17.60;7.93;;;6.60;99.90;;;;;;4165645;28;20475;-64
2022/11/27 05:09:57;;;;;;;18.08;8.38;;;6.60;99.90;;;;;;4179976;28;20595;-64
2022/11/27 05:11:57;;;;;;;20.58;8.68;;;6.60;99.90;;;;;;4182964;28;20085;-64
2022/11/27 05:16:17;;;;;;;14.48;8.25;;;6.60;99.90;;;;;;4185017;28;20029;-64
2022/11/27 05:18:18;;;;;;;13.93;8.02;;;6.50;99.90;;;;;;4167194;28;20100;-63
2022/11/27 05:20:18;;;;;;;21.85;8.63;;;6.60;99.90;;;;;;4174263;28;20045;-64
2022/11/27 05:22:19;;;;;;;20.83;9.27;;;6.50;99.90;;;;;;4178913;28;20055;-64
2022/11/27 05:24:22;;;;;;;16.90;8.50;;;6.50;99.90;;;;;;4164385;28;20030;-64
2022/11/27 05:26:22;;;;;;;17.80;9.20;;;6.50;99.90;;;;;;4161359;28;20116;-63
2022/11/27 05:28:23;;;;;;;16.50;8.43;;;6.50;99.90;;;;;;4162311;28;20562;-64
2022/11/27 05:30:24;;;;;;;13.45;7.63;;;6.60;99.90;;;;;;4181022;28;20517;-64
2022/11/27 05:32:24;;;;;;;17.88;7.78;;;6.60;99.90;;;;;;4193374;28;20185;-64
2022/11/27 05:34:25;;;;;;;17.30;7.65;;;6.60;99.90;;;;;;4181088;28;20029;-64
2022/11/27 05:36:25;;;;;;;18.92;9.18;;;6.60;99.90;;;;;;4176440;28;20463;-64
2022/11/27 05:38:26;;;;;;;15.80;8.45;;;6.60;99.90;;;;;;4184174;28;20476;-64
2022/11/27 05:40:26;;;;;;;16.02;8.45;;;6.60;99.90;;;;;;4171716;28;20048;-64
2022/11/27 05:42:27;;;;;;;15.05;8.38;;;6.60;99.90;;;;;;4188368;28;20029;-64
2022/11/27 05:44:28;;;;;;;18.88;8.52;;;6.60;99.90;;;;;;4181979;28;20427;-64
2022/11/27 05:46:28;;;;;;;17.77;8.68;;;6.50;99.90;;;;;;4177700;28;20037;-64
2022/11/27 05:48:29;;;;;;;19.33;8.63;;;6.60;99.90;;;;;;4178226;28;20057;-64
2022/11/27 05:50:30;;;;;;;17.92;7.97;;;6.60;99.90;;;;;;4169004;28;20527;-64
2022/11/27 05:52:30;;;;;;;12.25;6.90;;;6.50;99.90;;;;;;4180133;28;20120;-64
2022/11/27 05:54:31;;;;;;;15.98;8.15;;;6.60;99.90;;;;;;4175657;28;20383;-64
2022/11/27 05:56:31;;;;;;;19.30;8.82;;;6.60;99.90;;;;;;4192545;28;20060;-64
2022/11/27 05:58:33;;;;;;;15.90;7.93;;;6.60;99.90;;;;;;4191897;28;20028;-64
2022/11/27 06:00:34;;;;;;;18.45;8.40;;;6.60;99.90;;;;;;4178999;28;20380;-64
2022/11/27 06:02:34;;;;;;;16.10;7.82;;;6.60;99.90;;;;;;4183509;28;20029;-64
2022/11/27 06:04:35;;;;;;;17.35;7.72;;;6.60;99.90;;;;;;4177167;28;20037;-64
2022/11/27 06:06:35;;;;;;;16.35;8.18;;;6.60;99.90;;;;;;4185638;28;20063;-65
2022/11/27 06:08:37;;;;;;;19.35;7.57;;;6.60;99.90;;;;;;4178440;28;20093;-64
2022/11/27 06:10:38;;;;;;;17.48;8.15;;;6.60;99.90;;;;;;4163988;28;20040;-64
2022/11/27 06:12:39;;;;;;;18.02;8.35;;;6.50;99.90;;;;;;4177726;28;20029;-64
2022/11/27 06:14:40;;;;;;;14.60;6.95;;;6.50;99.90;;;;;;4169443;28;20129;-64
2022/11/27 06:16:40;;;;;;;13.95;7.22;;;6.60;99.90;;;;;;4181371;28;20061;-64
2022/11/27 06:18:42;;;;;;;16.52;7.93;;;6.60;99.90;;;;;;4186029;28;20032;-64
2022/11/27 06:20:42;;;;;;;20.02;7.53;;;6.60;99.90;;;;;;4183527;28;20033;-64
2022/11/27 06:22:43;;;;;;;15.55;7.28;;;6.60;99.90;;;;;;4174362;28;20033;-63
2022/11/27 06:24:43;;;;;;;16.13;8.52;;;6.60;99.90;;;;;;4177183;28;20067;-64
2022/11/27 06:26:44;;;;;;;16.13;7.13;;;6.60;99.90;;;;;;4177124;28;20033;-63
2022/11/27 06:28:46;;;;;;;16.83;7.20;;;6.60;99.90;;;;;;4185003;28;20032;-64
2022/11/27 06:30:46;;;;;;;15.32;7.10;;;6.50;99.90;;;;;;4167304;28;20068;-63
2022/11/27 06:32:47;;;;;;;16.70;7.47;;;6.60;99.90;;;;;;4185141;28;20499;-64
2022/11/27 06:34:47;;;;;;;16.95;7.13;;;6.60;99.90;;;;;;4188404;28;20552;-64
2022/11/27 06:36:49;;;;;;;14.63;7.00;;;6.60;99.90;;;;;;4178028;28;20041;-63
2022/11/27 06:38:50;;;;;;;15.45;7.07;;;6.50;99.90;;;;;;4174739;28;20075;-64
2022/11/27 06:40:50;;;;;;;12.10;6.95;;;6.50;99.90;;;;;;4174678;28;20523;-63
2022/11/27 06:42:51;;;;;;;12.55;7.10;;;6.50;99.90;;;;;;4181219;28;20035;-64
2022/11/27 06:44:52;;;;;;;15.05;6.88;;;6.50;99.90;;;;;;4193637;28;20045;-65
2022/11/27 06:46:53;;;;;;;13.60;7.03;;;6.50;99.90;;;;;;4179347;28;20096;-64
2022/11/27 06:48:54;;;;;;;14.48;6.82;;;6.50;99.90;;;;;;4180189;28;20031;-64
2022/11/27 06:51:02;;;;;;;12.45;6.82;;;6.50;99.90;;;;;;4169439;28;20064;-64
2022/11/27 06:53:02;;;;;;;24.63;7.03;;;6.50;99.90;;;;;;4180821;28;20028;-64
2022/11/27 06:55:03;;;;;;;14.52;7.03;;;6.50;99.90;;;;;;4186210;28;20045;-65
2022/11/27 06:57:04;;;;;;;15.25;6.72;;;6.50;99.90;;;;;;4174298;28;20056;-64
2022/11/27 06:59:05;;;;;;;14.88;6.05;;;6.50;99.90;;;;;;4180819;28;20025;-64
2022/11/27 07:01:08;;;;;;;20.08;6.93;;;6.50;99.90;;;;;;4178962;28;20483;-64
2022/11/27 07:03:09;;;;;;;14.80;6.45;;;6.50;99.90;;;;;;4179630;28;20108;-63
2022/11/27 07:05:09;;;;;;;13.00;6.07;;;6.50;99.90;;;;;;4179730;28;20102;-64
2022/11/27 07:07:10;;;;;;;11.68;5.75;;;6.50;99.90;;;;;;4180586;28;20129;-63
2022/11/27 07:09:11;;;;;;;11.98;6.70;;;6.50;99.90;;;;;;4179399;28;20040;-64
2022/11/27 07:11:17;;;;;;;9.18;5.45;;;6.60;99.90;;;;;;4175254;28;21465;-64
2022/11/27 07:13:17;;;;;;;13.98;6.18;;;6.60;99.90;;;;;;4165306;28;20463;-64
2022/11/27 07:15:18;;;;;;;20.38;6.85;;;6.60;99.90;;;;;;4190902;28;20124;-64
2022/11/27 07:17:18;;;;;;;12.55;6.05;;;6.50;99.90;;;;;;4176869;28;20025;-64
2022/11/27 07:19:19;;;;;;;9.85;5.07;;;6.60;99.90;;;;;;4187402;28;20056;-64
2022/11/27 07:21:20;;;;;;;12.60;5.82;;;6.60;99.90;;;;;;4181377;28;20033;-64
2022/11/27 07:23:21;;;;;;;14.65;5.82;;;6.60;99.90;;;;;;4194130;28;20033;-64
2022/11/27 07:25:21;;;;;;;12.05;5.80;;;6.60;99.90;;;;;;4195338;28;20128;-64
2022/11/27 07:27:22;;;;;;;10.07;5.75;;;6.60;99.90;;;;;;4179138;28;20399;-64
2022/11/27 07:29:23;;;;;;;11.80;5.38;;;6.60;99.90;;;;;;4182884;28;20048;-66
2022/11/27 07:31:27;;;;;;;9.60;4.82;;;6.70;99.90;;;;;;4176417;28;20029;-66
2022/11/27 07:33:28;;;;;;;11.70;5.43;;;6.60;99.90;;;;;;4180403;28;20121;-65
2022/11/27 07:35:28;;;;;;;12.85;5.53;;;6.70;99.90;;;;;;4162564;28;20037;-66
2022/11/27 07:37:30;;;;;;;12.07;5.38;;;6.70;99.90;;;;;;4179211;28;20033;-65
2022/11/27 07:39:31;;;;;;;11.43;5.30;;;6.80;99.90;;;;;;4166561;28;20041;-65
2022/11/27 07:41:31;;;;;;;10.73;5.40;;;6.80;99.90;;;;;;4181349;28;20036;-66
2022/11/27 07:43:33;;;;;;;11.40;5.00;;;6.80;99.90;;;;;;4179553;28;20521;-65
2022/11/27 07:45:34;;;;;;;10.20;5.25;;;6.80;99.90;;;;;;4173763;28;20045;-65
2022/11/27 07:47:34;;;;;;;11.82;5.72;;;6.80;99.90;;;;;;4178512;28;20025;-64
2022/11/27 07:49:35;;;;;;;12.45;5.55;;;6.80;99.90;;;;;;4176942;28;20079;-65
2022/11/27 07:51:36;;;;;;;13.90;5.45;;;6.80;99.90;;;;;;4184463;28;20025;-65
2022/11/27 07:53:37;;;;;;;11.50;4.95;;;6.80;99.90;;;;;;4179195;28;20510;-65
2022/11/27 07:55:39;;;;;;;11.33;4.90;;;6.90;99.90;;;;;;4178163;28;20064;-65
2022/11/27 07:57:41;;;;;;;10.90;4.97;;;6.90;99.90;;;;;;4180036;28;20283;-66
2022/11/27 07:59:41;;;;;;;14.43;5.45;;;6.90;99.90;;;;;;4180271;28;20268;-65
2022/11/27 08:01:43;;;;;;;8.20;4.55;;;6.90;99.90;;;;;;4188693;28;20075;-65
2022/11/27 08:03:44;;;;;;;9.47;4.87;;;7.00;99.90;;;;;;4180447;28;20086;-65
2022/11/27 08:05:45;;;;;;;10.30;5.38;;;7.00;99.90;;;;;;4178226;28;20272;-65
2022/11/27 08:07:45;;;;;;;12.73;5.18;;;7.00;99.90;;;;;;4168570;28;20040;-65
2022/11/27 08:09:46;;;;;;;12.90;5.05;;;7.00;99.90;;;;;;4176414;28;20095;-65
2022/11/27 08:11:46;;;;;;;8.85;4.93;;;7.00;99.90;;;;;;4178544;28;20032;-65
2022/11/27 08:13:47;;;;;;;11.70;4.85;;;7.10;99.90;;;;;;4189937;28;20345;-65
2022/11/27 08:15:48;;;;;;;11.30;5.05;;;7.10;99.90;;;;;;4192105;28;20078;-65
2022/11/27 08:17:48;;;;;;;9.73;5.15;;;7.20;99.90;;;;;;4184189;28;20033;-65
2022/11/27 08:19:49;;;;;;;19.52;8.23;;;7.10;99.90;;;;;;4184578;28;20032;-65
2022/11/27 08:21:50;;;;;;;20.55;9.98;;;7.20;99.90;;;;;;4174868;28;20048;-65
2022/11/27 08:23:50;;;;;;;15.18;6.22;;;7.20;99.90;;;;;;4176222;28;20034;-65
2022/11/27 08:25:51;;;;;;;11.60;5.10;;;7.20;99.90;;;;;;4190104;28;20025;-65
2022/11/27 08:27:51;;;;;;;9.93;5.28;;;7.30;99.90;;;;;;4174042;28;20030;-65
2022/11/27 08:29:52;;;;;;;11.98;4.82;;;7.30;99.90;;;;;;4171689;28;20036;-65
2022/11/27 08:31:53;;;;;;;9.85;4.85;;;7.30;99.90;;;;;;4177703;28;20053;-68
2022/11/27 08:33:53;;;;;;;10.18;4.90;;;7.30;99.90;;;;;;4171730;28;20073;-67
2022/11/27 08:35:54;;;;;;;6.85;3.97;;;7.30;99.90;;;;;;4174197;28;20025;-66
2022/11/27 08:37:55;;;;;;;11.32;5.05;;;7.30;99.90;;;;;;4181893;28;20403;-66
2022/11/27 08:39:55;;;;;;;11.50;4.60;;;7.40;99.90;;;;;;4175529;28;20041;-65
2022/11/27 08:41:56;;;;;;;11.23;4.97;;;7.40;99.90;;;;;;4179158;28;20120;-65
2022/11/27 08:43:56;;;;;;;10.60;5.25;;;7.40;99.90;;;;;;4173261;28;20026;-65
2022/11/27 08:45:58;;;;;;;9.48;5.18;;;7.40;99.90;;;;;;4172327;28;20117;-66
2022/11/27 08:47:58;;;;;;;10.63;4.00;;;7.40;99.90;;;;;;4165831;28;20033;-65
2022/11/27 08:49:59;;;;;;;8.85;4.72;;;7.40;99.90;;;;;;4172036;28;20036;-65
2022/11/27 08:52:00;;;;;;;12.02;4.40;;;7.50;99.90;;;;;;4160346;28;20083;-65
2022/11/27 08:54:00;;;;;;;12.98;4.95;;;7.40;99.90;;;;;;4175818;28;20032;-65
2022/11/27 08:56:10;;;;;;;13.98;4.57;;;7.40;99.90;;;;;;4180190;28;20036;-65
2022/11/27 08:58:11;;;;;;;7.85;4.57;;;7.50;99.90;;;;;;4178014;28;20039;-66
2022/11/27 09:00:12;;;;;;;7.25;4.38;;;7.50;99.90;;;;;;4178957;28;20379;-69
2022/11/27 09:02:12;;;;;;;9.60;4.07;;;7.50;99.90;;;;;;4173811;28;20029;-66
2022/11/27 09:04:13;;;;;;;11.98;5.18;;;7.50;99.90;;;;;;4178160;28;20124;-65
2022/11/27 09:06:16;;;;;;;8.48;4.78;;;7.50;99.90;;;;;;4178727;28;20061;-65
2022/11/27 09:08:20;;;;;;;7.55;4.07;;;7.50;99.90;;;;;;4181393;28;20038;-66
2022/11/27 09:10:20;;;;;;;9.70;4.43;;;7.60;99.90;;;;;;4175769;28;20938;-65
2022/11/27 09:12:21;;;;;;;11.35;5.18;;;7.60;99.90;;;;;;4179495;28;20032;-65
2022/11/27 09:14:22;;;;;;;9.02;4.13;;;7.60;99.90;;;;;;4175348;28;20559;-65
2022/11/27 09:16:22;;;;;;;13.70;5.05;;;7.60;99.90;;;;;;4179188;28;20400;-65
2022/11/27 09:18:23;;;;;;;9.55;4.25;;;7.60;99.90;;;;;;4177618;28;20124;-65
2022/11/27 09:20:24;;;;;;;8.75;4.30;;;7.70;99.90;;;;;;4175691;28;20043;-66
2022/11/27 09:22:24;;;;;;;12.73;4.80;;;7.70;99.90;;;;;;4175179;28;20037;-67
2022/11/27 09:24:25;;;;;;;7.75;3.90;;;7.70;99.90;;;;;;4176031;28;20051;-66
2022/11/27 09:26:27;;;;;;;9.77;4.63;;;7.70;99.90;;;;;;4175823;28;20033;-66
2022/11/27 09:28:28;;;;;;;12.05;4.50;;;7.70;99.90;;;;;;4180265;28;20037;-65
2022/11/27 09:30:28;;;;;;;6.47;4.05;;;7.70;99.90;;;;;;4176435;28;20059;-65
2022/11/27 09:32:29;;;;;;;10.15;4.07;;;7.70;99.90;;;;;;4174463;28;20029;-65
2022/11/27 09:34:30;;;;;;;9.27;4.40;;;7.80;99.90;;;;;;4174043;28;20037;-65
2022/11/27 09:36:30;;;;;;;11.68;4.20;;;7.80;99.90;;;;;;4175706;28;20036;-66
2022/11/27 09:38:31;;;;;;;7.47;4.30;;;7.80;99.90;;;;;;4177052;28;20384;-65
2022/11/27 09:40:32;;;;;;;8.52;4.47;;;7.90;99.90;;;;;;4177268;28;20034;-65
2022/11/27 09:42:47;;;;;;;9.50;4.43;;;7.90;99.90;;;;;;4174153;28;20032;-65
2022/11/27 09:44:54;;;;;;;10.13;4.53;;;7.90;99.90;;;;;;4170274;28;20033;-65
2022/11/27 09:46:58;;;;;;;8.50;4.75;;;7.90;99.90;;;;;;4190855;28;20036;-67
2022/11/27 09:49:03;;;;;;;9.80;4.50;;;7.90;99.90;;;;;;4185470;28;20040;-66
2022/11/27 09:51:12;;;;;;;10.25;4.50;;;8.00;99.90;;;;;;4174923;28;20036;-65
2022/11/27 09:53:28;;;;;;;11.15;4.80;;;8.00;99.90;;;;;;4177700;28;20040;-66
2022/11/27 09:55:37;;;;;;;11.18;4.85;;;7.90;99.90;;;;;;4172306;28;20097;-66
2022/11/27 09:57:40;;;;;;;8.07;4.30;;;8.00;99.90;;;;;;4176498;28;20040;-66
2022/11/27 09:59:52;;;;;;;12.00;4.57;;;8.00;99.90;;;;;;4170479;28;20163;-67
2022/11/27 10:01:53;;;;;;;9.50;4.50;;;8.10;99.90;;;;;;4178829;28;20086;-66
2022/11/27 10:03:54;;;;;;;7.63;4.18;;;8.10;99.90;;;;;;4181883;28;20037;-67
2022/11/27 10:06:13;;;;;;;11.15;4.97;;;8.00;99.90;;;;;;4189580;28;20028;-66
2022/11/27 10:08:28;;;;;;;10.98;4.72;;;8.00;99.90;;;;;;4144863;28;20057;-67
2022/11/27 10:10:54;;;;;;;8.55;4.95;;;8.10;99.90;;;;;;4154737;28;20038;-67
2022/11/27 10:13:51;;;;;;;10.20;4.75;;;8.10;99.90;;;;;;4148585;28;20030;-67
2022/11/27 10:16:24;;;;;;;10.18;4.93;;;8.10;99.90;;;;;;4137268;28;20113;-67
2022/11/27 10:18:47;;;;;;;9.83;4.60;;;8.10;99.90;;;;;;4163770;28;20032;-67
2022/11/27 10:20:57;;;;;;;8.60;4.25;;;8.10;99.90;;;;;;4147087;28;20261;-67
2022/11/27 10:23:09;;;;;;;8.55;4.13;;;8.10;99.90;;;;;;4168175;28;20033;-68
2022/11/27 10:25:13;;;;;;;9.85;4.63;;;8.10;99.90;;;;;;4163884;28;20033;-67
2022/11/27 10:27:29;;;;;;;7.38;3.78;;;8.10;99.90;;;;;;4168845;28;20114;-67
2022/11/27 10:29:46;;;;;;;7.40;4.35;;;8.10;99.90;;;;;;4158969;28;23193;-68
2022/11/27 10:31:56;;;;;;;5.97;3.63;;;8.10;99.90;;;;;;4165061;28;20472;-66
2022/11/27 10:34:03;;;;;;;7.35;4.20;;;8.10;99.90;;;;;;4174136;28;20120;-68
2022/11/27 10:36:09;;;;;;;7.03;3.75;;;8.20;99.90;;;;;;4157920;28;20041;-67
2022/11/27 10:38:26;;;;;;;9.52;4.07;;;8.20;99.90;;;;;;4165573;28;20029;-68
2022/11/27 10:40:51;;;;;;;9.77;4.18;;;8.20;99.90;;;;;;4160305;28;20037;-67
2022/11/27 10:43:17;;;;;;;13.35;4.07;;;8.20;99.90;;;;;;4142738;28;20025;-67
2022/11/27 10:45:23;;;;;;;12.98;4.82;;;8.20;99.90;;;;;;4169604;28;20040;-67
2022/11/27 10:47:26;;;;;;;11.27;4.57;;;8.30;99.90;;;;;;4169055;28;20025;-67
2022/11/27 10:49:26;;;;;;;10.00;4.22;;;8.20;99.90;;;;;;4160343;28;20519;-68
2022/11/27 10:51:34;;;;;;;9.02;4.13;;;8.20;99.90;;;;;;4157878;28;20029;-68